Time;durP1;ratioP1;P1;durP2;ratioP2;P2;SDS_P1;SDS_P2;PMS_P1;PMS_P2;Temp;Humidity;BMP_temperature;BMP_pressure;BME280_temperature;BME280_humidity;BME280_pressure;Samples;Min_cycle;Max_cycle;Signal;HPM_P1;HPM_P2
2022/05/22 00:01:04;;;;;;;;;8.33;7.00;;;;;20.72;49.82;101237.09;5090859;28;45723;-74
2022/05/22 00:03:29;;;;;;;;;7.33;5.67;;;;;20.87;49.71;101255.09;5094621;28;45144;-72
2022/05/22 00:05:54;;;;;;;;;10.00;5.67;;;;;20.52;49.75;101188.34;5095755;28;45025;-73
2022/05/22 00:08:21;;;;;;;;;10.00;5.33;;;;;20.89;49.60;101261.44;5095400;28;45188;-73
2022/05/22 00:10:46;;;;;;;;;10.67;7.00;;;;;20.61;49.42;101207.31;5095296;28;45203;-73
2022/05/22 00:13:11;;;;;;;;;11.33;9.67;;;;;20.92;49.34;101247.81;5091380;28;45020;-74
2022/05/22 00:16:36;;;;;;;;;6.67;6.67;;;;;20.48;49.40;101186.59;5095424;28;45049;-75
2022/05/22 00:18:22;;;;;;;;;8.00;5.67;;;;;20.42;49.51;101174.84;5094439;27;45012;-73
2022/05/22 00:20:48;;;;;;;;;9.67;5.33;;;;;20.85;49.43;101260.53;5094168;28;45112;-74
2022/05/22 00:23:13;;;;;;;;;6.00;5.00;;;;;20.73;49.49;101247.94;5093954;28;45738;-73
2022/05/22 00:25:39;;;;;;;;;5.67;5.67;;;;;20.71;49.70;101228.06;5060043;28;45145;-73
2022/05/22 00:28:05;;;;;;;;;5.33;4.67;;;;;20.86;49.63;101250.59;5068605;28;45580;-73
2022/05/22 00:30:30;;;;;;;;;8.33;6.67;;;;;20.86;49.66;101245.16;5075520;28;45061;-72
2022/05/22 00:32:56;;;;;;;;;4.67;4.67;;;;;20.82;49.90;101243.38;5094549;28;45168;-76
2022/05/22 00:35:21;;;;;;;;;7.33;7.00;;;;;20.79;50.12;101250.63;5094846;28;44959;-73
2022/05/22 00:37:47;;;;;;;;;9.00;5.67;;;;;20.83;49.81;101256.03;5093146;28;45483;-74
2022/05/22 00:40:12;;;;;;;;;10.67;6.67;;;;;20.68;49.91;101228.09;5090719;28;44933;-72
2022/05/22 00:42:38;;;;;;;;;7.67;7.00;;;;;20.76;49.94;101219.88;5092983;28;45434;-72
2022/05/22 00:45:05;;;;;;;;;8.33;5.33;;;;;20.82;49.84;101241.53;5095302;28;45130;-74
2022/05/22 00:47:30;;;;;;;;;4.33;4.00;;;;;20.60;50.03;101222.66;5094735;28;44938;-72
2022/05/22 00:50:00;;;;;;;;;7.00;5.33;;;;;20.64;50.16;101234.47;5076638;28;45103;-78
2022/05/22 00:52:43;;;;;;;;;5.67;5.67;;;;;20.62;50.22;101226.28;5092626;28;45520;-77
2022/05/22 00:55:13;;;;;;;;;7.33;7.33;;;;;20.52;50.29;101202.81;5094057;28;45481;-73
2022/05/22 00:58:04;;;;;;;;;8.00;6.33;;;;;20.40;50.60;101173.06;5094525;28;45060;-72
2022/05/22 01:00:34;;;;;;;;;8.67;5.00;;;;;20.55;50.52;101210.94;5093908;28;45328;-72
2022/05/22 01:05:48;;;;;;;;;4.33;4.33;;;;;20.44;50.24;101183.91;5094362;28;45029;-74
2022/05/22 01:08:14;;;;;;;;;7.33;6.67;;;;;20.61;50.29;101202.75;5094538;28;45075;-73
2022/05/22 01:10:43;;;;;;;;;5.67;5.67;;;;;20.59;50.25;101200.97;5093576;28;45187;-72
2022/05/22 01:13:11;;;;;;;;;9.00;7.00;;;;;20.24;50.25;101135.22;5074238;28;46292;-72
2022/05/22 01:15:36;;;;;;;;;7.67;5.67;;;;;20.57;50.25;101182.00;5090891;28;44908;-76
2022/05/22 01:18:01;;;;;;;;;4.33;4.00;;;;;20.30;50.85;101146.91;5090581;28;45259;-72
2022/05/22 01:20:27;;;;;;;;;6.67;5.33;;;;;20.37;50.62;101160.41;5071944;28;45658;-72
2022/05/22 01:22:52;;;;;;;;;8.00;8.00;;;;;20.41;50.62;101175.78;5092059;28;45168;-76
2022/05/22 01:25:17;;;;;;;;;7.67;3.67;;;;;19.88;50.55;101115.56;5094117;28;45149;-76
2022/05/22 01:27:43;;;;;;;;;4.67;4.67;;;;;20.35;50.60;101181.25;5075273;28;45293;-71
2022/05/22 01:30:11;;;;;;;;;5.67;5.00;;;;;20.38;50.67;101180.34;5091844;28;45222;-78
2022/05/22 01:32:39;;;;;;;;;6.33;5.00;;;;;20.36;50.57;101168.56;5074962;28;46559;-76
2022/05/22 01:35:06;;;;;;;;;12.33;9.33;;;;;20.15;50.67;101135.25;5085943;28;45105;-76
2022/05/22 01:37:31;;;;;;;;;6.33;4.67;;;;;20.36;50.72;101168.56;5092169;28;45099;-73
2022/05/22 01:39:56;;;;;;;;;6.33;6.33;;;;;20.29;50.55;101151.44;5093566;27;45141;-73
2022/05/22 01:42:22;;;;;;;;;4.00;4.00;;;;;20.35;50.49;101174.91;5094201;28;46137;-77
2022/05/22 01:44:47;;;;;;;;;5.00;5.00;;;;;19.83;50.46;101081.22;5094225;28;45004;-73
2022/05/22 01:47:12;;;;;;;;;7.00;7.00;;;;;20.31;50.41;101165.91;5092851;28;45062;-75
2022/05/22 01:49:38;;;;;;;;;5.00;5.00;;;;;20.31;50.44;101165.91;5092762;27;45253;-73
2022/05/22 01:52:04;;;;;;;;;6.67;5.00;;;;;20.29;50.64;101169.53;5093638;28;45687;-72
2022/05/22 01:54:29;;;;;;;;;4.67;4.67;;;;;20.12;50.38;101140.69;5091027;28;45384;-73
2022/05/22 01:56:54;;;;;;;;;5.67;5.67;;;;;19.86;50.85;101108.31;5071685;28;44988;-77
2022/05/22 01:59:20;;;;;;;;;5.00;5.00;;;;;20.14;50.56;101147.00;5091459;28;45165;-72
2022/05/22 02:01:45;;;;;;;;;7.00;5.33;;;;;19.73;50.20;101077.63;5091057;28;45291;-73
2022/05/22 02:04:11;;;;;;;;;6.67;6.00;;;;;19.96;50.46;101126.31;5090211;27;45313;-74
2022/05/22 02:08:18;;;;;;;;;5.00;5.00;;;;;20.06;50.44;101136.22;5089217;28;45311;-75
2022/05/22 02:09:22;;;;;;;;;10.33;6.67;;;;;20.27;50.61;101161.41;5086193;28;45302;-74
2022/05/22 02:11:47;;;;;;;;;4.00;4.00;;;;;20.19;50.49;101149.69;5094133;28;45279;-74
2022/05/22 02:14:14;;;;;;;;;5.67;4.00;;;;;20.04;50.45;101121.75;5092225;28;45035;-72
2022/05/22 02:16:39;;;;;;;;;6.00;6.00;;;;;20.16;50.63;101147.00;5070553;28;45210;-72
2022/05/22 02:19:04;;;;;;;;;7.67;5.67;;;;;19.64;50.39;101053.31;5088538;28;45274;-72
2022/05/22 02:21:32;;;;;;;;;6.67;5.33;;;;;20.21;50.53;101162.34;5089238;28;45232;-73
2022/05/22 02:23:57;;;;;;;;;4.33;4.33;;;;;19.85;50.51;101107.44;5090112;28;45251;-75
2022/05/22 02:26:22;;;;;;;;;4.67;4.00;;;;;19.95;50.13;101112.81;5089239;28;45205;-72
2022/05/22 02:28:48;;;;;;;;;6.67;4.67;;;;;20.20;50.65;101157.81;5091098;28;44898;-72
2022/05/22 02:31:13;;;;;;;;;5.00;4.00;;;;;19.95;50.16;101120.94;5090982;28;45182;-73
2022/05/22 02:33:38;;;;;;;;;4.00;4.00;;;;;20.12;50.12;101145.25;5089091;27;45128;-73
2022/05/22 02:36:06;;;;;;;;;8.33;5.33;;;;;19.86;50.30;101101.13;5091048;28;45236;-73
2022/05/22 02:38:33;;;;;;;;;5.00;3.33;;;;;20.19;50.23;101161.44;5091632;28;45298;-73
2022/05/22 02:40:58;;;;;;;;;7.00;7.00;;;;;20.13;50.00;101145.22;5089435;28;45570;-73
2022/05/22 02:43:24;;;;;;;;;7.67;7.00;;;;;20.24;50.39;101169.56;5088442;28;44967;-73
2022/05/22 02:45:49;;;;;;;;;9.67;6.67;;;;;20.08;50.25;101147.06;5091141;28;45111;-81
2022/05/22 02:48:15;;;;;;;;;7.00;5.00;;;;;20.20;50.29;101176.81;5093439;28;45240;-72
2022/05/22 02:50:44;;;;;;;;;8.33;7.00;;;;;20.04;50.52;101164.25;5093339;28;45441;-74
2022/05/22 02:53:09;;;;;;;;;5.33;5.33;;;;;19.84;50.25;101132.72;5073436;28;44998;-74
2022/05/22 02:55:35;;;;;;;;;8.67;6.00;;;;;20.21;50.40;101191.28;5091543;28;45190;-75
2022/05/22 02:58:00;;;;;;;;;5.00;5.00;;;;;19.92;50.32;101135.41;5073172;28;45212;-73
2022/05/22 03:00:30;;;;;;;;;9.67;5.67;;;;;19.87;50.70;101120.97;5092428;28;45149;-74
2022/05/22 03:02:55;;;;;;;;;8.33;4.67;;;;;19.73;50.58;101104.75;5088538;28;44938;-74
2022/05/22 03:05:21;;;;;;;;;4.67;4.67;;;;;20.04;50.37;101159.72;5073093;28;45053;-73
2022/05/22 03:07:47;;;;;;;;;7.00;6.33;;;;;20.20;50.62;101189.50;5089853;28;45147;-72
2022/05/22 03:10:14;;;;;;;;;10.00;5.33;;;;;20.21;50.48;101183.13;5083040;28;45583;-72
2022/05/22 03:12:40;;;;;;;;;6.67;6.67;;;;;20.02;50.61;101153.41;5088704;28;45588;-75
2022/05/22 03:15:08;;;;;;;;;6.00;6.00;;;;;19.94;50.78;101143.53;5089984;28;45046;-76
2022/05/22 03:17:34;;;;;;;;;7.33;5.00;;;;;19.85;50.84;101126.41;5087585;28;45524;-72
2022/05/22 03:19:59;;;;;;;;;5.33;5.33;;;;;19.59;51.12;101087.69;5091481;28;45506;-73
2022/05/22 03:22:25;;;;;;;;;9.33;8.00;;;;;20.12;51.12;101172.38;5091425;28;45028;-72
2022/05/22 03:24:51;;;;;;;;;9.67;8.00;;;;;19.86;51.44;101114.66;5091383;28;45322;-75
2022/05/22 03:27:19;;;;;;;;;10.33;10.33;;;;;20.05;51.27;101156.13;5092421;28;45300;-72
2022/05/22 03:29:46;;;;;;;;;11.33;9.33;;;;;20.01;51.47;101146.22;5090943;28;46318;-73
2022/05/22 03:32:12;;;;;;;;;8.67;8.67;;;;;19.99;51.42;101141.69;5092165;28;45614;-74
2022/05/22 03:34:38;;;;;;;;;9.00;9.00;;;;;19.96;51.70;101137.19;5092613;28;45037;-72
2022/05/22 03:37:04;;;;;;;;;12.67;11.00;;;;;19.52;51.83;101071.44;5091159;28;45084;-72
2022/05/22 03:39:30;;;;;;;;;12.00;12.00;;;;;19.79;52.04;101104.75;5088139;28;46656;-71
2022/05/22 03:41:57;;;;;;;;;10.67;10.67;;;;;19.68;51.91;101087.59;5090065;28;45379;-73
2022/05/22 03:44:22;;;;;;;;;14.00;10.00;;;;;19.66;51.82;101084.00;5071535;28;45020;-74
2022/05/22 03:46:48;;;;;;;;;11.67;9.00;;;;;19.86;51.67;101133.66;5088085;28;45174;-75
2022/05/22 03:49:13;;;;;;;;;12.33;10.67;;;;;19.60;52.13;101103.94;5089128;28;46074;-80
2022/05/22 03:51:40;;;;;;;;;12.25;12.00;;;;;19.80;52.05;101135.47;5089602;28;45014;-75
2022/05/22 03:54:06;;;;;;;;;13.33;8.67;;;;;19.62;52.41;101126.50;5074090;28;45169;-74
2022/05/22 03:56:32;;;;;;;;;14.00;11.00;;;;;19.69;52.45;101133.69;5090975;28;45188;-75
2022/05/22 03:58:57;;;;;;;;;9.00;9.00;;;;;19.47;52.47;101105.78;5092092;28;48025;-73
2022/05/22 04:01:23;;;;;;;;;12.00;11.00;;;;;19.67;52.74;101129.19;5086852;28;45085;-72
2022/05/22 04:03:48;;;;;;;;;11.33;9.33;;;;;19.51;52.52;101104.84;5091006;28;45260;-75
2022/05/22 04:06:13;;;;;;;;;9.75;9.50;;;;;19.23;52.62;101046.31;5089855;28;45141;-74
2022/05/22 04:08:39;;;;;;;;;10.67;9.33;;;;;19.39;52.74;101076.94;5090833;28;45471;-76
2022/05/22 04:11:07;;;;;;;;;13.67;11.00;;;;;19.33;52.68;101070.63;5091843;28;45053;-75
2022/05/22 04:13:33;;;;;;;;;12.33;8.33;;;;;19.46;52.65;101095.84;5091706;28;45061;-74
2022/05/22 04:15:58;;;;;;;;;14.00;10.67;;;;;19.22;52.82;101044.47;5093104;28;44920;-73
2022/05/22 04:18:24;;;;;;;;;7.67;7.00;;;;;19.50;52.54;101104.88;5092480;28;45259;-74
2022/05/22 04:20:50;;;;;;;;;7.67;7.67;;;;;19.54;52.79;101101.25;5091420;28;45199;-73
2022/05/22 04:25:59;;;;;;;;;9.33;8.33;;;;;19.41;52.63;101091.38;5090820;28;45001;-74
2022/05/22 04:28:27;;;;;;;;;10.00;9.67;;;;;19.27;52.91;101084.22;5087076;28;45660;-73
2022/05/22 04:30:54;;;;;;;;;10.33;9.00;;;;;19.07;52.85;101029.22;5073226;27;45555;-74
2022/05/22 04:33:19;;;;;;;;;8.67;7.00;;;;;19.20;53.24;101067.97;5057592;28;45448;-73
2022/05/22 04:35:45;;;;;;;;;10.67;8.00;;;;;19.28;53.17;101082.41;5076511;28;46216;-73
2022/05/22 04:38:11;;;;;;;;;7.00;7.00;;;;;19.33;52.64;101099.53;5084978;28;45590;-74
2022/05/22 04:40:38;;;;;;;;;10.00;9.67;;;;;19.49;52.82;101108.50;5078333;28;45284;-72
2022/05/22 04:43:04;;;;;;;;;9.67;7.00;;;;;19.42;52.84;101101.28;5093021;28;45024;-73
2022/05/22 04:45:30;;;;;;;;;13.00;7.33;;;;;18.31;52.48;100894.13;5083166;27;45236;-73
2022/05/22 04:47:55;;;;;;;;;7.00;7.00;;;;;19.56;52.54;101112.09;5082307;28;45959;-75
2022/05/22 04:50:20;;;;;;;;;8.33;6.33;;;;;19.52;52.69;101114.81;5063898;28;45999;-72
2022/05/22 04:52:46;;;;;;;;;11.67;10.33;;;;;19.59;52.44;101115.66;5085191;28;45485;-72
2022/05/22 04:55:11;;;;;;;;;10.33;7.00;;;;;19.52;52.34;101114.81;5084796;28;45376;-73
2022/05/22 04:57:37;;;;;;;;;9.33;7.33;;;;;19.36;52.45;101079.66;5078374;27;46182;-72
2022/05/22 05:00:05;;;;;;;;;5.67;4.33;;;;;19.62;51.94;101123.78;5079881;28;45405;-74
2022/05/22 05:02:31;;;;;;;;;9.67;7.00;;;;;19.63;52.37;101125.59;5066648;28;45735;-72
2022/05/22 05:04:57;;;;;;;;;9.67;9.00;;;;;19.63;52.22;101131.03;5089022;28;45362;-73
2022/05/22 05:07:24;;;;;;;;;9.67;7.00;;;;;19.55;52.13;101119.31;5084443;28;45883;-73
2022/05/22 05:09:50;;;;;;;;;5.50;5.00;;;;;19.49;51.91;101103.97;5070192;28;45764;-78
2022/05/22 05:12:16;;;;;;;;;6.67;6.67;;;;;19.38;51.95;101084.16;5077569;28;45417;-75
2022/05/22 05:14:42;;;;;;;;;9.67;8.67;;;;;19.70;52.20;101127.38;5086683;28;45768;-75
2022/05/22 05:17:12;;;;;;;;;10.33;8.00;;;;;19.56;51.80;101088.56;5083712;28;45876;-73
2022/05/22 05:19:38;;;;;;;;;9.00;7.33;;;;;19.82;51.61;101126.44;5087051;28;45223;-73
2022/05/22 05:22:04;;;;;;;;;7.33;7.33;;;;;19.85;51.20;101130.94;5090950;28;45163;-73
2022/05/22 05:24:29;;;;;;;;;9.67;6.67;;;;;19.72;51.62;101105.66;5093162;28;45306;-73
2022/05/22 05:26:55;;;;;;;;;8.67;8.33;;;;;19.66;51.46;101093.03;5090865;28;45484;-72
2022/05/22 05:29:21;;;;;;;;;9.00;7.00;;;;;19.87;51.59;101120.97;5094519;28;45230;-75
2022/05/22 05:31:47;;;;;;;;;7.33;7.33;;;;;19.91;51.27;101125.47;5091110;28;45123;-73
2022/05/22 05:34:13;;;;;;;;;7.67;7.67;;;;;19.96;51.14;101125.44;5075352;28;45232;-73
2022/05/22 05:36:39;;;;;;;;;13.00;8.67;;;;;19.80;51.24;101105.63;5094185;28;46610;-74
2022/05/22 05:39:06;;;;;;;;;9.00;7.33;;;;;20.00;50.82;101132.66;5094058;28;45084;-74
2022/05/22 05:41:31;;;;;;;;;6.67;6.00;;;;;19.97;50.83;101114.59;5072895;28;45814;-74
2022/05/22 05:43:57;;;;;;;;;10.33;7.00;;;;;20.02;50.53;101117.28;5094026;28;44892;-72
2022/05/22 05:46:23;;;;;;;;;7.00;6.33;;;;;19.91;50.65;101089.31;5094097;28;45544;-73
2022/05/22 05:48:48;;;;;;;;;22.25;19.25;;;;;19.96;50.00;101084.75;5093605;28;45118;-73
2022/05/22 05:51:14;;;;;;;;;10.33;10.33;;;;;19.83;49.93;101063.16;5074061;28;45063;-73
2022/05/22 05:53:39;;;;;;;;;10.33;10.33;;;;;20.34;50.04;101130.59;5094381;28;45223;-76
2022/05/22 05:56:05;;;;;;;;;10.33;8.00;;;;;20.18;49.89;101093.66;5094635;28;44976;-73
2022/05/22 05:58:32;;;;;;;;;7.00;7.00;;;;;20.04;49.62;101069.31;5093317;28;45296;-78
2022/05/22 06:00:57;;;;;;;;;6.00;6.00;;;;;20.02;49.92;101050.34;5092994;28;45148;-77
2022/05/22 06:03:23;;;;;;;;;9.33;9.33;;;;;20.44;49.75;101109.69;5072592;28;46531;-75
2022/05/22 06:05:49;;;;;;;;;10.67;8.67;;;;;20.02;50.17;101036.78;5092979;28;45548;-75
2022/05/22 06:08:14;;;;;;;;;25.50;22.50;;;;;20.23;49.65;101060.13;5092540;28;45384;-76
2022/05/22 06:10:40;;;;;;;;;12.67;10.00;;;;;20.52;49.71;101102.38;5090950;28;45039;-74
2022/05/22 06:13:07;;;;;;;;;10.67;9.33;;;;;20.40;49.53;101083.50;5091352;27;45233;-76
2022/05/22 06:15:33;;;;;;;;;6.00;6.00;;;;;20.58;48.95;101096.91;5093317;28;45126;-76
2022/05/22 06:17:58;;;;;;;;;10.33;10.33;;;;;20.64;49.29;101098.72;5092401;28;45244;-74
2022/05/22 06:20:24;;;;;;;;;9.67;8.67;;;;;20.67;49.35;101095.94;5090351;28;45267;-74
2022/05/22 06:22:49;;;;;;;;;9.33;8.33;;;;;20.63;49.33;101080.63;5090775;28;45486;-73
2022/05/22 06:25:17;;;;;;;;;14.67;10.67;;;;;20.71;49.30;101078.72;5090211;28;45116;-76
2022/05/22 06:27:43;;;;;;;;;11.33;10.00;;;;;20.43;49.14;101019.25;5088650;28;44890;-74
2022/05/22 06:30:12;;;;;;;;;8.33;8.33;;;;;20.76;48.66;101079.56;5092803;28;45103;-80
2022/05/22 06:32:40;;;;;;;;;9.00;7.67;;;;;20.47;48.76;101017.38;5090355;28;45224;-81
2022/05/22 06:35:07;;;;;;;;;13.00;11.67;;;;;20.81;48.67;101068.66;5091424;28;46005;-78
2022/05/22 06:37:32;;;;;;;;;9.00;9.00;;;;;20.73;48.65;101030.72;5091225;28;45261;-74
2022/05/22 06:39:57;;;;;;;;;11.33;9.67;;;;;20.53;49.42;100987.47;5087645;28;45352;-74
2022/05/22 06:42:29;;;;;;;;;10.33;10.33;;;;;20.90;48.55;101045.94;5093121;28;45178;-72
2022/05/22 06:45:07;;;;;;;;;8.33;8.33;;;;;20.95;48.41;101036.81;5074101;28;46393;-74
2022/05/22 06:47:34;;;;;;;;;10.33;7.33;;;;;20.65;48.24;100959.31;5090534;27;45089;-75
2022/05/22 06:50:04;;;;;;;;;8.33;8.33;;;;;20.44;48.40;100938.72;5082782;28;46187;-77
2022/05/22 06:52:31;;;;;;;;;9.67;7.67;;;;;21.12;47.79;101020.31;5090458;28;45196;-74
2022/05/22 06:54:56;;;;;;;;;7.67;7.67;;;;;20.93;47.51;100986.13;5087955;27;46036;-75
2022/05/22 06:57:22;;;;;;;;;8.00;8.00;;;;;21.23;47.15;101024.69;5088551;28;45293;-73
2022/05/22 06:59:51;;;;;;;;;12.00;5.00;;;;;21.23;46.86;101022.88;5090448;28;45167;-79
2022/05/22 07:02:17;;;;;;;;;6.33;6.33;;;;;21.13;46.49;101010.34;5092284;28;45130;-75
2022/05/22 07:04:42;;;;;;;;;6.00;4.67;;;;;21.21;46.06;100996.66;5092332;28;45143;-75
2022/05/22 07:07:08;;;;;;;;;6.67;6.67;;;;;21.47;46.01;101032.53;5088991;28;45109;-76
2022/05/22 07:09:34;;;;;;;;;5.67;5.33;;;;;20.96;45.63;100929.97;5088794;27;45123;-76
2022/05/22 07:12:00;;;;;;;;;5.67;5.00;;;;;21.44;45.57;101009.91;5086947;28;45686;-74
2022/05/22 07:14:28;;;;;;;;;8.67;6.00;;;;;21.26;45.58;100978.47;5088315;28;45761;-76
2022/05/22 07:16:54;;;;;;;;;5.00;5.00;;;;;21.43;45.64;100989.09;5089015;28;45326;-75
2022/05/22 07:19:20;;;;;;;;;7.00;5.00;;;;;21.59;44.54;101008.81;5085212;28;45538;-78
2022/05/22 07:21:47;;;;;;;;;3.00;3.00;;;;;21.49;44.90;100991.75;5087181;27;45110;-75
2022/05/22 07:24:13;;;;;;;;;4.33;4.00;;;;;21.67;44.66;101018.66;5088117;28;45278;-76
2022/05/22 07:26:39;;;;;;;;;5.67;5.33;;;;;21.60;44.20;101006.09;5089444;28;45310;-81
2022/05/22 07:29:05;;;;;;;;;6.33;3.00;;;;;21.68;44.28;101012.31;5079165;28;46163;-78
2022/05/22 07:31:32;;;;;;;;;7.33;3.67;;;;;21.33;44.28;100902.25;5076093;28;45568;-79
2022/05/22 07:33:58;;;;;;;;;5.67;4.00;;;;;21.46;43.21;100908.38;5077611;28;45737;-80
2022/05/22 07:36:24;;;;;;;;;4.33;3.67;;;;;21.58;42.98;100982.56;5074291;28;45759;-74
2022/05/22 07:38:49;;;;;;;;;6.33;3.33;;;;;21.64;43.33;101028.69;5074452;28;45384;-75
2022/05/22 07:41:15;;;;;;;;;2.00;2.00;;;;;21.12;42.97;100949.66;5070937;28;46609;-75
2022/05/22 07:43:41;;;;;;;;;2.00;2.00;;;;;21.61;43.14;101017.84;5083674;28;45393;-74
2022/05/22 07:46:08;;;;;;;;;4.33;3.00;;;;;21.64;43.52;101042.28;5082367;28;45504;-75
2022/05/22 07:48:34;;;;;;;;;3.00;3.00;;;;;21.70;43.21;101017.72;5059629;28;45317;-81
2022/05/22 07:51:02;;;;;;;;;3.00;3.00;;;;;21.74;43.08;100997.69;5079458;28;45457;-75
2022/05/22 07:53:29;;;;;;;;;5.67;3.67;;;;;21.85;43.10;100998.44;5083443;28;45403;-79
2022/05/22 07:55:55;;;;;;;;;3.00;3.00;;;;;21.66;43.01;100943.47;5090265;28;45254;-78
2022/05/22 07:58:22;;;;;;;;;2.00;2.00;;;;;22.00;42.81;100977.34;5091421;28;45209;-76
2022/05/22 08:00:51;;;;;;;;;5.67;5.33;;;;;22.14;42.47;100997.06;5087779;28;45397;-75
2022/05/22 08:03:17;;;;;;;;;3.00;3.00;;;;;22.21;42.25;101012.34;5090456;28;45822;-74
2022/05/22 08:05:43;;;;;;;;;2.00;2.00;;;;;22.08;42.04;100943.63;5093000;28;45201;-78
2022/05/22 08:08:09;;;;;;;;;5.00;4.00;;;;;22.31;41.46;100976.84;5071769;28;45136;-75
2022/05/22 08:10:36;;;;;;;;;7.33;7.33;;;;;22.31;42.04;100983.16;5090632;28;45432;-76
2022/05/22 08:13:05;;;;;;;;;3.33;3.00;;;;;22.24;41.79;100941.53;5090332;28;45438;-75
2022/05/22 08:15:32;;;;;;;;;3.67;3.67;;;;;22.12;41.57;100884.59;5092939;27;45141;-78
2022/05/22 08:17:59;;;;;;;;;1.00;1.00;;;;;22.60;41.43;100959.91;5086986;27;45743;-77
2022/05/22 08:20:26;;;;;;;;;5.00;4.00;;;;;22.42;41.19;100909.44;5077283;28;45567;-77
2022/05/22 08:22:56;;;;;;;;;5.33;3.00;;;;;22.42;41.27;100901.28;5082932;28;46288;-78
2022/05/22 08:25:25;;;;;;;;;4.00;4.00;;;;;22.43;41.57;100892.19;5084529;28;45489;-75
2022/05/22 08:27:52;;;;;;;;;3.00;3.00;;;;;22.80;41.13;100921.38;5057407;28;45729;-76
2022/05/22 08:30:19;;;;;;;;;13.33;12.00;;;;;22.83;40.83;100891.34;5084214;28;45449;-76
2022/05/22 08:32:46;;;;;;;;;6.00;4.00;;;;;22.42;40.17;100833.22;5061862;28;45668;-75
2022/05/22 08:35:15;;;;;;;;;5.00;4.67;;;;;23.03;40.20;100919.97;5079429;28;45358;-76
2022/05/22 08:37:41;;;;;;;;;4.67;3.00;;;;;22.52;40.22;100823.94;5077931;28;46371;-74
2022/05/22 08:40:07;;;;;;;;;4.33;4.33;;;;;23.29;39.83;100922.13;5073840;27;45850;-75
2022/05/22 08:42:43;;;;;;;;;4.67;3.33;;;;;23.34;40.06;100912.91;5060787;28;48169;-75
2022/05/22 08:45:33;;;;;;;;;4.33;4.00;;;;;23.26;39.14;100879.47;5090401;28;45430;-76
2022/05/22 08:48:10;;;;;;;;;4.67;2.67;;;;;23.66;39.51;100933.06;5080100;28;45465;-76
2022/05/22 08:50:36;;;;;;;;;3.67;3.00;;;;;23.81;38.69;100930.84;5079218;28;45452;-79
2022/05/22 08:53:23;;;;;;;;;3.00;3.00;;;;;23.79;39.00;100930.91;5077738;28;45495;-78
2022/05/22 08:58:58;;;;;;;;;3.00;2.00;;;;;23.64;38.72;100914.91;5093366;28;45038;-79
2022/05/22 09:01:51;;;;;;;;;3.33;2.00;;;;;23.74;38.68;100931.03;5090038;28;45266;-81
2022/05/22 09:04:34;;;;;;;;;2.00;2.00;;;;;23.81;38.62;100930.84;5095099;28;46016;-76
2022/05/22 09:07:05;;;;;;;;;2.33;2.00;;;;;23.88;38.89;100924.34;5090390;28;44901;-74
2022/05/22 09:09:34;;;;;;;;;3.00;3.00;;;;;23.84;38.54;100898.06;5086542;28;45141;-77
2022/05/22 09:12:18;;;;;;;;;2.33;2.33;;;;;23.95;38.55;100911.44;5094844;28;45049;-79
2022/05/22 09:14:58;;;;;;;;;2.33;2.33;;;;;23.65;38.44;100841.22;5057071;28;46481;-79
2022/05/22 09:17:35;;;;;;;;;5.00;3.00;;;;;24.07;37.89;100903.81;5067381;28;46040;-81
2022/05/22 09:20:19;;;;;;;;;2.33;2.00;;;;;24.08;38.10;100902.88;5093461;28;45147;-74
2022/05/22 09:23:13;;;;;;;;;3.00;3.00;;;;;24.17;37.98;100895.38;5088212;28;45404;-74
2022/05/22 09:25:51;;;;;;;;;3.00;2.00;;;;;24.31;37.98;100904.06;5083966;27;45256;-73
2022/05/22 09:28:43;;;;;;;;;3.00;3.00;;;;;24.24;37.69;100888.81;5083763;27;45511;-75
2022/05/22 09:31:53;;;;;;;;;3.00;3.00;;;;;24.48;37.40;100889.94;5084275;28;45398;-74
2022/05/22 09:34:30;;;;;;;;;2.67;2.67;;;;;24.62;37.53;100884.13;5068683;27;45271;-73
2022/05/22 09:37:18;;;;;;;;;2.00;2.00;;;;;24.33;36.57;100806.63;5085909;28;45428;-76
2022/05/22 09:40:22;;;;;;;;;4.67;4.67;;;;;24.87;36.49;100880.63;5071706;28;45145;-74
2022/05/22 09:43:09;;;;;;;;;5.00;4.00;;;;;24.93;35.66;100869.47;5088385;28;45383;-75
2022/05/22 09:45:48;;;;;;;;;2.33;2.33;;;;;24.84;35.24;100874.28;5085789;28;45409;-74
2022/05/22 09:48:20;;;;;;;;;2.00;2.00;;;;;24.78;35.79;100863.56;5072451;27;46047;-74
2022/05/22 09:51:20;;;;;;;;;3.00;2.00;;;;;24.66;35.97;100858.47;5069671;28;45429;-75
2022/05/22 09:54:05;;;;;;;;;2.00;2.00;;;;;24.62;36.06;100854.06;5070611;28;45414;-74
2022/05/22 09:56:40;;;;;;;;;2.67;2.67;;;;;24.43;36.17;100845.47;5074478;28;46938;-76
2022/05/22 09:59:24;;;;;;;;;3.00;3.00;;;;;24.44;36.27;100837.22;5066839;28;46302;-74
2022/05/22 10:01:55;;;;;;;;;5.67;3.67;;;;;23.96;36.66;100725.84;5075095;28;45398;-75
2022/05/22 10:04:20;;;;;;;;;3.67;3.67;;;;;24.36;35.93;100814.72;5074919;28;45369;-73
2022/05/22 10:07:40;;;;;;;;;3.00;3.00;;;;;24.35;36.33;100818.38;5069016;27;45409;-73
2022/05/22 10:10:34;;;;;;;;;6.33;6.33;;;;;23.89;36.34;100735.13;4970283;28;45790;-77
2022/05/22 10:13:18;;;;;;;;;3.67;3.00;;;;;23.89;35.85;100722.38;5072908;28;45483;-75
2022/05/22 10:16:00;;;;;;;;;2.33;2.33;;;;;24.28;36.06;100800.41;5075087;28;45716;-75
2022/05/22 10:18:59;;;;;;;;;3.00;3.00;;;;;24.36;36.15;100784.69;5075128;28;45494;-75
2022/05/22 10:21:34;;;;;;;;;2.33;2.33;;;;;24.40;35.56;100800.06;5074151;28;46379;-74
2022/05/22 10:24:35;;;;;;;;;3.67;3.67;;;;;24.30;36.74;100809.44;5073690;28;45311;-81
2022/05/22 10:27:17;;;;;;;;;1.67;1.00;;;;;23.82;36.77;100764.41;5045090;28;45609;-74
2022/05/22 10:30:02;;;;;;;;;2.00;2.00;;;;;24.01;37.20;100793.94;5075135;28;45420;-76
2022/05/22 10:32:37;;;;;;;;;2.00;2.00;;;;;23.90;37.05;100745.97;5068965;28;46256;-77
2022/05/22 10:35:49;;;;;;;;;2.67;2.67;;;;;24.21;37.25;100777.84;5075074;28;45425;-79
2022/05/22 10:38:22;;;;;;;;;6.00;4.67;;;;;24.17;37.23;100754.31;5043974;28;46232;-77
2022/05/22 10:43:40;;;;;;;;;3.33;3.33;;;;;23.85;36.47;100681.59;5075270;28;45770;-76
2022/05/22 10:46:06;;;;;;;;;4.00;2.67;;;;;24.00;36.58;100689.31;5075439;28;45406;-79
2022/05/22 10:48:33;;;;;;;;;5.67;5.00;;;;;24.22;36.80;100715.94;5057522;28;45548;-75
2022/05/22 10:51:12;;;;;;;;;3.00;3.00;;;;;24.13;37.47;100711.66;5076102;28;45457;-74
2022/05/22 10:53:50;;;;;;;;;4.67;4.67;;;;;23.91;37.40;100684.16;5079265;28;45472;-75
2022/05/22 10:56:18;;;;;;;;;4.00;3.00;;;;;24.09;37.29;100688.16;5063345;28;45464;-80
2022/05/22 10:59:03;;;;;;;;;4.67;3.00;;;;;24.13;37.45;100705.31;5075177;28;45309;-74
2022/05/22 11:01:37;;;;;;;;;2.33;2.33;;;;;24.02;37.67;100712.00;5075137;28;45472;-81
2022/05/22 11:04:15;;;;;;;;;4.00;2.00;;;;;23.88;38.34;100704.22;5074038;28;46662;-77
2022/05/22 11:06:55;;;;;;;;;5.00;5.00;;;;;23.76;38.35;100698.19;5074103;28;45310;-75
2022/05/22 11:09:29;;;;;;;;;6.00;4.00;;;;;23.45;38.89;100647.28;5074757;28;45373;-76
2022/05/22 11:12:10;;;;;;;;;11.00;9.00;;;;;23.51;38.76;100675.25;5073930;28;47305;-79
2022/05/22 11:14:36;;;;;;;;;14.00;11.33;;;;;23.77;38.47;100706.31;5074210;28;45565;-74
2022/05/22 11:17:16;;;;;;;;;4.00;4.00;;;;;22.94;37.95;100577.78;5074329;28;45503;-81
2022/05/22 11:19:46;;;;;;;;;2.00;2.00;;;;;23.60;38.53;100687.72;5073788;28;45417;-74
2022/05/22 11:22:31;;;;;;;;;4.00;3.00;;;;;23.74;40.56;100709.13;5074360;28;45310;-79
2022/05/22 11:25:27;;;;;;;;;3.00;3.00;;;;;23.66;41.52;100722.09;5074358;28;45373;-76
2022/05/22 11:28:22;;;;;;;;;2.33;2.33;;;;;23.63;41.65;100720.38;5075438;28;45637;-77
2022/05/22 11:31:14;;;;;;;;;7.67;5.67;;;;;23.63;41.12;100733.13;5067815;28;45437;-74
2022/05/22 11:34:00;;;;;;;;;4.33;4.33;;;;;23.59;42.37;100713.19;5073112;28;45376;-75
2022/05/22 11:37:10;;;;;;;;;5.33;4.33;;;;;23.60;43.30;100711.38;5074295;28;45657;-75
2022/05/22 11:39:45;;;;;;;;;5.67;4.00;;;;;23.54;42.70;100713.34;5044724;28;45525;-74
2022/05/22 11:42:34;;;;;;;;;5.00;3.67;;;;;23.55;42.44;100714.25;5074889;28;45644;-77
2022/05/22 11:45:38;;;;;;;;;4.00;3.33;;;;;23.54;42.87;100732.44;5074722;28;45387;-73
2022/05/22 11:48:52;;;;;;;;;9.00;6.00;;;;;23.42;43.40;100719.13;5012182;28;46027;-74